sensor_id;sensor_type;location;lat;lon;timestamp;P1;durP1;ratioP1;P2;durP2;ratioP2
78430;SDS011;67727;50.236;22.452;2023-04-25T00:00:01;8.70;;;5.10;;
78430;SDS011;67727;50.236;22.452;2023-04-25T00:02:30;9.20;;;4.80;;
78430;SDS011;67727;50.236;22.452;2023-04-25T00:04:59;6.50;;;4.80;;
78430;SDS011;67727;50.236;22.452;2023-04-25T00:07:26;7.90;;;5.20;;
78430;SDS011;67727;50.236;22.452;2023-04-25T00:09:52;6.90;;;5.20;;
78430;SDS011;67727;50.236;22.452;2023-04-25T00:12:19;6.00;;;4.40;;
78430;SDS011;67727;50.236;22.452;2023-04-25T00:14:50;7.00;;;3.70;;
78430;SDS011;67727;50.236;22.452;2023-04-25T00:17:17;7.20;;;3.70;;
78430;SDS011;67727;50.236;22.452;2023-04-25T00:19:45;5.60;;;4.30;;
78430;SDS011;67727;50.236;22.452;2023-04-25T00:22:12;4.70;;;4.20;;
78430;SDS011;67727;50.236;22.452;2023-04-25T00:24:39;7.60;;;4.70;;
78430;SDS011;67727;50.236;22.452;2023-04-25T00:27:06;6.60;;;4.70;;
78430;SDS011;67727;50.236;22.452;2023-04-25T00:29:33;6.00;;;4.00;;
78430;SDS011;67727;50.236;22.452;2023-04-25T00:32:00;5.20;;;4.40;;
78430;SDS011;67727;50.236;22.452;2023-04-25T00:34:28;6.00;;;4.70;;
78430;SDS011;67727;50.236;22.452;2023-04-25T00:36:55;6.20;;;4.50;;
78430;SDS011;67727;50.236;22.452;2023-04-25T00:39:24;6.50;;;3.70;;
78430;SDS011;67727;50.236;22.452;2023-04-25T00:41:51;4.10;;;3.20;;
78430;SDS011;67727;50.236;22.452;2023-04-25T00:44:20;5.00;;;3.60;;
78430;SDS011;67727;50.236;22.452;2023-04-25T00:46:48;5.50;;;4.20;;
78430;SDS011;67727;50.236;22.452;2023-04-25T00:49:16;5.40;;;4.30;;
78430;SDS011;67727;50.236;22.452;2023-04-25T00:51:43;5.20;;;4.40;;
78430;SDS011;67727;50.236;22.452;2023-04-25T00:54:11;6.70;;;4.70;;
78430;SDS011;67727;50.236;22.452;2023-04-25T00:56:39;7.50;;;5.20;;
78430;SDS011;67727;50.236;22.452;2023-04-25T00:59:06;6.10;;;5.00;;
78430;SDS011;67727;50.236;22.452;2023-04-25T01:01:33;6.10;;;4.80;;
78430;SDS011;67727;50.236;22.452;2023-04-25T01:04:01;4.60;;;4.10;;
78430;SDS011;67727;50.236;22.452;2023-04-25T01:06:28;4.20;;;3.40;;
78430;SDS011;67727;50.236;22.452;2023-04-25T01:08:55;6.70;;;4.70;;
78430;SDS011;67727;50.236;22.452;2023-04-25T01:13:49;5.50;;;5.00;;
78430;SDS011;67727;50.236;22.452;2023-04-25T01:16:16;5.90;;;5.20;;
78430;SDS011;67727;50.236;22.452;2023-04-25T01:18:43;6.80;;;4.80;;
78430;SDS011;67727;50.236;22.452;2023-04-25T01:21:11;6.20;;;4.90;;
78430;SDS011;67727;50.236;22.452;2023-04-25T01:23:40;5.40;;;4.60;;
78430;SDS011;67727;50.236;22.452;2023-04-25T01:26:10;8.20;;;4.50;;
78430;SDS011;67727;50.236;22.452;2023-04-25T01:28:38;4.90;;;3.80;;
78430;SDS011;67727;50.236;22.452;2023-04-25T01:31:07;4.60;;;3.50;;
78430;SDS011;67727;50.236;22.452;2023-04-25T01:33:35;6.80;;;4.70;;
78430;SDS011;67727;50.236;22.452;2023-04-25T01:36:02;5.30;;;4.60;;
78430;SDS011;67727;50.236;22.452;2023-04-25T01:38:29;8.30;;;5.40;;
78430;SDS011;67727;50.236;22.452;2023-04-25T01:40:56;6.50;;;4.90;;
78430;SDS011;67727;50.236;22.452;2023-04-25T01:43:23;5.80;;;4.80;;
78430;SDS011;67727;50.236;22.452;2023-04-25T01:45:50;8.50;;;5.80;;
78430;SDS011;67727;50.236;22.452;2023-04-25T01:48:18;5.50;;;4.80;;
78430;SDS011;67727;50.236;22.452;2023-04-25T01:50:45;5.00;;;3.90;;
78430;SDS011;67727;50.236;22.452;2023-04-25T01:53:12;4.80;;;3.40;;
78430;SDS011;67727;50.236;22.452;2023-04-25T01:55:40;5.40;;;3.90;;
78430;SDS011;67727;50.236;22.452;2023-04-25T01:58:07;6.70;;;4.90;;
78430;SDS011;67727;50.236;22.452;2023-04-25T02:00:36;6.50;;;5.00;;
78430;SDS011;67727;50.236;22.452;2023-04-25T02:03:07;6.40;;;5.10;;
78430;SDS011;67727;50.236;22.452;2023-04-25T02:05:35;6.30;;;5.00;;
78430;SDS011;67727;50.236;22.452;2023-04-25T02:08:04;4.90;;;4.00;;
78430;SDS011;67727;50.236;22.452;2023-04-25T02:10:32;6.20;;;4.00;;
78430;SDS011;67727;50.236;22.452;2023-04-25T02:13:00;4.80;;;3.80;;
78430;SDS011;67727;50.236;22.452;2023-04-25T02:15:26;5.50;;;4.50;;
78430;SDS011;67727;50.236;22.452;2023-04-25T02:17:53;8.00;;;4.60;;
78430;SDS011;67727;50.236;22.452;2023-04-25T02:20:21;4.90;;;4.10;;
78430;SDS011;67727;50.236;22.452;2023-04-25T02:22:51;6.40;;;4.90;;
78430;SDS011;67727;50.236;22.452;2023-04-25T02:25:18;6.50;;;4.80;;
78430;SDS011;67727;50.236;22.452;2023-04-25T02:27:48;4.70;;;3.70;;
78430;SDS011;67727;50.236;22.452;2023-04-25T02:30:15;5.90;;;3.30;;
78430;SDS011;67727;50.236;22.452;2023-04-25T02:32:42;4.00;;;3.40;;
78430;SDS011;67727;50.236;22.452;2023-04-25T02:35:09;6.90;;;3.30;;
78430;SDS011;67727;50.236;22.452;2023-04-25T02:37:37;5.10;;;4.20;;
78430;SDS011;67727;50.236;22.452;2023-04-25T02:40:05;4.40;;;3.40;;
78430;SDS011;67727;50.236;22.452;2023-04-25T02:42:33;5.00;;;4.00;;
78430;SDS011;67727;50.236;22.452;2023-04-25T02:45:00;4.60;;;3.90;;
78430;SDS011;67727;50.236;22.452;2023-04-25T02:47:27;4.90;;;3.60;;
78430;SDS011;67727;50.236;22.452;2023-04-25T02:49:54;4.30;;;2.90;;
78430;SDS011;67727;50.236;22.452;2023-04-25T02:52:21;4.20;;;3.10;;
78430;SDS011;67727;50.236;22.452;2023-04-25T02:54:51;3.60;;;2.60;;
78430;SDS011;67727;50.236;22.452;2023-04-25T02:57:20;4.30;;;2.80;;
78430;SDS011;67727;50.236;22.452;2023-04-25T02:59:46;4.00;;;3.10;;
78430;SDS011;67727;50.236;22.452;2023-04-25T03:02:13;6.70;;;4.00;;
78430;SDS011;67727;50.236;22.452;2023-04-25T03:04:40;4.20;;;3.20;;
78430;SDS011;67727;50.236;22.452;2023-04-25T03:07:09;4.70;;;3.70;;
78430;SDS011;67727;50.236;22.452;2023-04-25T03:09:36;6.30;;;3.20;;
78430;SDS011;67727;50.236;22.452;2023-04-25T03:12:02;3.30;;;3.00;;
78430;SDS011;67727;50.236;22.452;2023-04-25T03:14:29;3.70;;;2.50;;
78430;SDS011;67727;50.236;22.452;2023-04-25T03:16:56;3.50;;;2.90;;
78430;SDS011;67727;50.236;22.452;2023-04-25T03:19:23;6.20;;;3.60;;
78430;SDS011;67727;50.236;22.452;2023-04-25T03:21:50;4.70;;;3.40;;
78430;SDS011;67727;50.236;22.452;2023-04-25T03:24:17;4.80;;;3.80;;
78430;SDS011;67727;50.236;22.452;2023-04-25T03:26:43;4.70;;;3.70;;
78430;SDS011;67727;50.236;22.452;2023-04-25T03:29:10;5.70;;;3.40;;
78430;SDS011;67727;50.236;22.452;2023-04-25T03:31:38;4.40;;;3.60;;
78430;SDS011;67727;50.236;22.452;2023-04-25T03:34:04;5.50;;;3.10;;
78430;SDS011;67727;50.236;22.452;2023-04-25T03:36:33;3.80;;;3.20;;
78430;SDS011;67727;50.236;22.452;2023-04-25T03:39:00;5.50;;;3.70;;
78430;SDS011;67727;50.236;22.452;2023-04-25T03:41:27;5.40;;;3.80;;
78430;SDS011;67727;50.236;22.452;2023-04-25T03:43:54;5.10;;;4.30;;
78430;SDS011;67727;50.236;22.452;2023-04-25T03:46:21;5.00;;;4.20;;
78430;SDS011;67727;50.236;22.452;2023-04-25T03:48:48;5.10;;;4.40;;
78430;SDS011;67727;50.236;22.452;2023-04-25T03:51:17;4.40;;;3.20;;
78430;SDS011;67727;50.236;22.452;2023-04-25T03:53:44;5.70;;;3.50;;
78430;SDS011;67727;50.236;22.452;2023-04-25T03:56:11;5.90;;;4.30;;
78430;SDS011;67727;50.236;22.452;2023-04-25T03:58:37;4.90;;;4.20;;
78430;SDS011;67727;50.236;22.452;2023-04-25T04:01:04;5.00;;;4.30;;
78430;SDS011;67727;50.236;22.452;2023-04-25T04:03:34;6.10;;;4.20;;
78430;SDS011;67727;50.236;22.452;2023-04-25T04:06:04;5.00;;;4.50;;
78430;SDS011;67727;50.236;22.452;2023-04-25T04:08:32;4.70;;;3.80;;
78430;SDS011;67727;50.236;22.452;2023-04-25T04:11:02;5.00;;;3.80;;
78430;SDS011;67727;50.236;22.452;2023-04-25T04:15:58;7.30;;;4.10;;
78430;SDS011;67727;50.236;22.452;2023-04-25T04:18:25;4.80;;;3.80;;
78430;SDS011;67727;50.236;22.452;2023-04-25T04:20:52;5.40;;;4.10;;
78430;SDS011;67727;50.236;22.452;2023-04-25T04:23:19;9.20;;;4.60;;
78430;SDS011;67727;50.236;22.452;2023-04-25T04:25:46;6.80;;;4.90;;
78430;SDS011;67727;50.236;22.452;2023-04-25T04:28:14;6.20;;;4.70;;
78430;SDS011;67727;50.236;22.452;2023-04-25T04:30:42;6.80;;;5.10;;
78430;SDS011;67727;50.236;22.452;2023-04-25T04:33:12;8.20;;;4.00;;
78430;SDS011;67727;50.236;22.452;2023-04-25T04:35:41;5.10;;;4.10;;
78430;SDS011;67727;50.236;22.452;2023-04-25T04:38:08;4.50;;;3.80;;
78430;SDS011;67727;50.236;22.452;2023-04-25T04:40:37;6.50;;;4.40;;
78430;SDS011;67727;50.236;22.452;2023-04-25T04:43:04;6.00;;;5.40;;
78430;SDS011;67727;50.236;22.452;2023-04-25T04:45:32;6.90;;;5.10;;
78430;SDS011;67727;50.236;22.452;2023-04-25T04:47:59;9.60;;;5.10;;
78430;SDS011;67727;50.236;22.452;2023-04-25T04:50:26;6.50;;;5.00;;
78430;SDS011;67727;50.236;22.452;2023-04-25T04:52:53;6.80;;;4.60;;
78430;SDS011;67727;50.236;22.452;2023-04-25T04:55:21;6.00;;;4.50;;
78430;SDS011;67727;50.236;22.452;2023-04-25T04:57:49;6.40;;;4.10;;
78430;SDS011;67727;50.236;22.452;2023-04-25T05:00:16;6.00;;;4.60;;
78430;SDS011;67727;50.236;22.452;2023-04-25T05:02:43;8.80;;;5.30;;
78430;SDS011;67727;50.236;22.452;2023-04-25T05:05:12;6.20;;;4.80;;
78430;SDS011;67727;50.236;22.452;2023-04-25T05:07:39;6.40;;;5.50;;
78430;SDS011;67727;50.236;22.452;2023-04-25T05:10:06;7.20;;;4.60;;
78430;SDS011;67727;50.236;22.452;2023-04-25T05:12:36;6.40;;;4.90;;
78430;SDS011;67727;50.236;22.452;2023-04-25T05:15:03;7.40;;;4.70;;
78430;SDS011;67727;50.236;22.452;2023-04-25T05:17:32;6.30;;;4.50;;
78430;SDS011;67727;50.236;22.452;2023-04-25T05:19:59;7.60;;;5.80;;
78430;SDS011;67727;50.236;22.452;2023-04-25T05:22:26;7.50;;;5.70;;
78430;SDS011;67727;50.236;22.452;2023-04-25T05:24:53;6.70;;;5.40;;
78430;SDS011;67727;50.236;22.452;2023-04-25T05:27:19;7.70;;;5.20;;
78430;SDS011;67727;50.236;22.452;2023-04-25T05:29:46;7.60;;;4.70;;
78430;SDS011;67727;50.236;22.452;2023-04-25T05:32:13;7.00;;;4.80;;
78430;SDS011;67727;50.236;22.452;2023-04-25T05:34:40;6.60;;;5.00;;
78430;SDS011;67727;50.236;22.452;2023-04-25T05:37:08;6.90;;;5.30;;
78430;SDS011;67727;50.236;22.452;2023-04-25T05:39:35;6.30;;;5.20;;
78430;SDS011;67727;50.236;22.452;2023-04-25T05:42:02;6.80;;;6.10;;
78430;SDS011;67727;50.236;22.452;2023-04-25T05:44:30;7.60;;;6.30;;
78430;SDS011;67727;50.236;22.452;2023-04-25T05:46:57;9.70;;;5.80;;
78430;SDS011;67727;50.236;22.452;2023-04-25T05:49:24;8.20;;;5.50;;
78430;SDS011;67727;50.236;22.452;2023-04-25T05:51:51;7.50;;;5.10;;
78430;SDS011;67727;50.236;22.452;2023-04-25T05:54:18;9.60;;;5.60;;
78430;SDS011;67727;50.236;22.452;2023-04-25T05:56:45;8.70;;;6.60;;
78430;SDS011;67727;50.236;22.452;2023-04-25T05:59:12;9.30;;;6.70;;
78430;SDS011;67727;50.236;22.452;2023-04-25T06:01:38;8.30;;;6.90;;
78430;SDS011;67727;50.236;22.452;2023-04-25T06:04:06;8.80;;;6.60;;
78430;SDS011;67727;50.236;22.452;2023-04-25T06:06:33;8.60;;;6.10;;
78430;SDS011;67727;50.236;22.452;2023-04-25T06:09:00;8.10;;;5.90;;
78430;SDS011;67727;50.236;22.452;2023-04-25T06:11:27;6.60;;;5.20;;
78430;SDS011;67727;50.236;22.452;2023-04-25T06:13:55;13.60;;;6.40;;
78430;SDS011;67727;50.236;22.452;2023-04-25T06:16:22;10.10;;;7.00;;
78430;SDS011;67727;50.236;22.452;2023-04-25T06:18:49;9.10;;;6.60;;
78430;SDS011;67727;50.236;22.452;2023-04-25T06:21:15;7.80;;;6.60;;
78430;SDS011;67727;50.236;22.452;2023-04-25T06:23:42;9.10;;;7.40;;
78430;SDS011;67727;50.236;22.452;2023-04-25T06:26:09;8.60;;;6.70;;
78430;SDS011;67727;50.236;22.452;2023-04-25T06:28:36;9.10;;;6.40;;
78430;SDS011;67727;50.236;22.452;2023-04-25T06:31:03;7.70;;;5.90;;
78430;SDS011;67727;50.236;22.452;2023-04-25T06:33:29;8.90;;;5.90;;
78430;SDS011;67727;50.236;22.452;2023-04-25T06:35:56;7.20;;;5.30;;
78430;SDS011;67727;50.236;22.452;2023-04-25T06:38:23;9.10;;;6.90;;
78430;SDS011;67727;50.236;22.452;2023-04-25T06:40:50;8.40;;;6.70;;
78430;SDS011;67727;50.236;22.452;2023-04-25T06:43:17;7.30;;;6.20;;
78430;SDS011;67727;50.236;22.452;2023-04-25T06:45:44;8.60;;;6.80;;
78430;SDS011;67727;50.236;22.452;2023-04-25T06:48:11;8.90;;;6.50;;
78430;SDS011;67727;50.236;22.452;2023-04-25T06:50:38;8.50;;;7.10;;
78430;SDS011;67727;50.236;22.452;2023-04-25T06:53:04;8.50;;;6.30;;
78430;SDS011;67727;50.236;22.452;2023-04-25T06:55:31;8.00;;;6.00;;
78430;SDS011;67727;50.236;22.452;2023-04-25T06:57:58;8.30;;;6.40;;
78430;SDS011;67727;50.236;22.452;2023-04-25T07:00:25;11.20;;;7.30;;
78430;SDS011;67727;50.236;22.452;2023-04-25T07:02:52;10.70;;;8.40;;
78430;SDS011;67727;50.236;22.452;2023-04-25T07:05:21;12.80;;;9.00;;
78430;SDS011;67727;50.236;22.452;2023-04-25T07:07:48;13.10;;;7.90;;
78430;SDS011;67727;50.236;22.452;2023-04-25T07:10:15;9.30;;;7.10;;
78430;SDS011;67727;50.236;22.452;2023-04-25T07:12:42;9.40;;;7.20;;
78430;SDS011;67727;50.236;22.452;2023-04-25T07:15:09;12.10;;;10.20;;
78430;SDS011;67727;50.236;22.452;2023-04-25T07:17:38;12.80;;;10.60;;
78430;SDS011;67727;50.236;22.452;2023-04-25T07:20:05;10.70;;;9.00;;
78430;SDS011;67727;50.236;22.452;2023-04-25T07:22:32;12.30;;;9.30;;
78430;SDS011;67727;50.236;22.452;2023-04-25T07:24:59;11.70;;;9.20;;
78430;SDS011;67727;50.236;22.452;2023-04-25T07:27:26;14.00;;;8.50;;
78430;SDS011;67727;50.236;22.452;2023-04-25T07:29:53;11.30;;;8.10;;
78430;SDS011;67727;50.236;22.452;2023-04-25T07:32:20;12.50;;;7.50;;
78430;SDS011;67727;50.236;22.452;2023-04-25T07:34:47;8.80;;;6.90;;
78430;SDS011;67727;50.236;22.452;2023-04-25T07:37:14;13.70;;;10.40;;
78430;SDS011;67727;50.236;22.452;2023-04-25T07:39:41;16.00;;;12.80;;
78430;SDS011;67727;50.236;22.452;2023-04-25T07:42:08;16.00;;;11.50;;
78430;SDS011;67727;50.236;22.452;2023-04-25T07:44:37;12.10;;;9.80;;
78430;SDS011;67727;50.236;22.452;2023-04-25T07:47:08;15.70;;;12.00;;
78430;SDS011;67727;50.236;22.452;2023-04-25T07:49:36;14.40;;;10.40;;
78430;SDS011;67727;50.236;22.452;2023-04-25T07:52:04;14.90;;;9.90;;
78430;SDS011;67727;50.236;22.452;2023-04-25T07:54:32;12.00;;;9.40;;
78430;SDS011;67727;50.236;22.452;2023-04-25T07:56:59;13.20;;;10.10;;
78430;SDS011;67727;50.236;22.452;2023-04-25T07:59:26;12.00;;;9.40;;
78430;SDS011;67727;50.236;22.452;2023-04-25T08:01:55;12.10;;;9.70;;
78430;SDS011;67727;50.236;22.452;2023-04-25T08:04:23;11.40;;;8.80;;
78430;SDS011;67727;50.236;22.452;2023-04-25T08:06:51;11.70;;;8.70;;
78430;SDS011;67727;50.236;22.452;2023-04-25T08:09:20;11.40;;;8.50;;
78430;SDS011;67727;50.236;22.452;2023-04-25T08:11:47;12.10;;;8.60;;
78430;SDS011;67727;50.236;22.452;2023-04-25T08:14:14;10.30;;;8.00;;
78430;SDS011;67727;50.236;22.452;2023-04-25T08:16:41;11.80;;;8.40;;
78430;SDS011;67727;50.236;22.452;2023-04-25T08:21:35;13.20;;;9.90;;
78430;SDS011;67727;50.236;22.452;2023-04-25T08:24:02;14.20;;;9.90;;
78430;SDS011;67727;50.236;22.452;2023-04-25T08:26:30;14.10;;;10.60;;
78430;SDS011;67727;50.236;22.452;2023-04-25T08:28:57;20.90;;;13.00;;
78430;SDS011;67727;50.236;22.452;2023-04-25T08:31:23;16.80;;;11.80;;
78430;SDS011;67727;50.236;22.452;2023-04-25T08:33:50;16.20;;;12.00;;
78430;SDS011;67727;50.236;22.452;2023-04-25T08:36:18;22.40;;;15.90;;
78430;SDS011;67727;50.236;22.452;2023-04-25T08:38:46;21.60;;;15.60;;
78430;SDS011;67727;50.236;22.452;2023-04-25T08:41:13;22.20;;;16.60;;
78430;SDS011;67727;50.236;22.452;2023-04-25T08:43:42;25.40;;;17.80;;
78430;SDS011;67727;50.236;22.452;2023-04-25T08:46:10;26.00;;;17.60;;
78430;SDS011;67727;50.236;22.452;2023-04-25T08:48:39;21.80;;;16.80;;
78430;SDS011;67727;50.236;22.452;2023-04-25T08:51:07;22.10;;;15.90;;
78430;SDS011;67727;50.236;22.452;2023-04-25T08:53:35;21.60;;;15.10;;
78430;SDS011;67727;50.236;22.452;2023-04-25T08:56:02;18.60;;;13.10;;
78430;SDS011;67727;50.236;22.452;2023-04-25T08:58:29;20.60;;;13.70;;
78430;SDS011;67727;50.236;22.452;2023-04-25T09:00:56;20.10;;;13.50;;
78430;SDS011;67727;50.236;22.452;2023-04-25T09:03:23;19.60;;;14.20;;
78430;SDS011;67727;50.236;22.452;2023-04-25T09:05:50;22.20;;;15.00;;
78430;SDS011;67727;50.236;22.452;2023-04-25T09:08:17;21.40;;;15.00;;
78430;SDS011;67727;50.236;22.452;2023-04-25T09:10:44;24.60;;;15.60;;
78430;SDS011;67727;50.236;22.452;2023-04-25T09:13:12;30.30;;;18.30;;
78430;SDS011;67727;50.236;22.452;2023-04-25T09:15:56;20.40;;;12.30;;
78430;SDS011;67727;50.236;22.452;2023-04-25T09:18:28;21.20;;;13.40;;
78430;SDS011;67727;50.236;22.452;2023-04-25T09:21:06;16.40;;;10.30;;
78430;SDS011;67727;50.236;22.452;2023-04-25T09:23:42;15.60;;;11.20;;
78430;SDS011;67727;50.236;22.452;2023-04-25T09:26:14;15.90;;;11.00;;
78430;SDS011;67727;50.236;22.452;2023-04-25T09:28:43;13.40;;;10.30;;
78430;SDS011;67727;50.236;22.452;2023-04-25T09:31:10;14.10;;;10.30;;
78430;SDS011;67727;50.236;22.452;2023-04-25T09:33:37;10.60;;;8.10;;
78430;SDS011;67727;50.236;22.452;2023-04-25T09:36:08;8.00;;;5.60;;
78430;SDS011;67727;50.236;22.452;2023-04-25T09:38:43;6.40;;;5.20;;
78430;SDS011;67727;50.236;22.452;2023-04-25T09:41:11;6.60;;;4.60;;
78430;SDS011;67727;50.236;22.452;2023-04-25T09:43:39;5.00;;;3.60;;
78430;SDS011;67727;50.236;22.452;2023-04-25T09:46:09;5.50;;;4.50;;
78430;SDS011;67727;50.236;22.452;2023-04-25T09:48:37;4.40;;;3.00;;
78430;SDS011;67727;50.236;22.452;2023-04-25T09:51:08;4.50;;;3.60;;
78430;SDS011;67727;50.236;22.452;2023-04-25T09:53:37;4.50;;;3.40;;
78430;SDS011;67727;50.236;22.452;2023-04-25T09:56:09;3.60;;;3.00;;
78430;SDS011;67727;50.236;22.452;2023-04-25T09:58:38;3.60;;;2.90;;
78430;SDS011;67727;50.236;22.452;2023-04-25T10:01:07;5.50;;;2.80;;
78430;SDS011;67727;50.236;22.452;2023-04-25T10:03:36;4.20;;;3.70;;
78430;SDS011;67727;50.236;22.452;2023-04-25T10:06:11;3.40;;;2.80;;
78430;SDS011;67727;50.236;22.452;2023-04-25T10:08:40;4.10;;;3.30;;
78430;SDS011;67727;50.236;22.452;2023-04-25T10:11:08;4.30;;;2.60;;
78430;SDS011;67727;50.236;22.452;2023-04-25T10:13:35;5.10;;;3.40;;
78430;SDS011;67727;50.236;22.452;2023-04-25T10:16:03;5.60;;;3.40;;
78430;SDS011;67727;50.236;22.452;2023-04-25T10:18:31;3.00;;;2.40;;
78430;SDS011;67727;50.236;22.452;2023-04-25T10:21:00;4.90;;;3.80;;
78430;SDS011;67727;50.236;22.452;2023-04-25T10:23:29;5.80;;;3.90;;
78430;SDS011;67727;50.236;22.452;2023-04-25T10:25:58;4.50;;;3.50;;
78430;SDS011;67727;50.236;22.452;2023-04-25T10:28:28;5.00;;;3.90;;
78430;SDS011;67727;50.236;22.452;2023-04-25T10:33:35;5.10;;;4.00;;
78430;SDS011;67727;50.236;22.452;2023-04-25T10:36:11;4.50;;;3.60;;
78430;SDS011;67727;50.236;22.452;2023-04-25T10:38:39;5.00;;;3.60;;
78430;SDS011;67727;50.236;22.452;2023-04-25T10:41:07;8.20;;;4.00;;
78430;SDS011;67727;50.236;22.452;2023-04-25T10:43:42;5.40;;;3.40;;
78430;SDS011;67727;50.236;22.452;2023-04-25T10:46:12;4.40;;;3.50;;
78430;SDS011;67727;50.236;22.452;2023-04-25T10:48:46;5.00;;;3.80;;
78430;SDS011;67727;50.236;22.452;2023-04-25T10:53:57;4.90;;;3.80;;
78430;SDS011;67727;50.236;22.452;2023-04-25T10:56:38;3.70;;;2.60;;
78430;SDS011;67727;50.236;22.452;2023-04-25T11:02:15;3.60;;;2.70;;
78430;SDS011;67727;50.236;22.452;2023-04-25T11:04:38;4.80;;;2.70;;
78430;SDS011;67727;50.236;22.452;2023-04-25T11:07:16;2.90;;;2.40;;
78430;SDS011;67727;50.236;22.452;2023-04-25T11:10:04;2.90;;;2.30;;
78430;SDS011;67727;50.236;22.452;2023-04-25T11:12:32;3.30;;;2.40;;
78430;SDS011;67727;50.236;22.452;2023-04-25T11:15:05;4.90;;;3.00;;
78430;SDS011;67727;50.236;22.452;2023-04-25T11:17:33;3.20;;;2.90;;
78430;SDS011;67727;50.236;22.452;2023-04-25T11:20:00;4.70;;;3.20;;
78430;SDS011;67727;50.236;22.452;2023-04-25T11:22:27;3.90;;;3.50;;
78430;SDS011;67727;50.236;22.452;2023-04-25T11:24:55;5.00;;;3.20;;
78430;SDS011;67727;50.236;22.452;2023-04-25T11:27:21;3.40;;;2.20;;
78430;SDS011;67727;50.236;22.452;2023-04-25T11:29:50;2.90;;;2.20;;
78430;SDS011;67727;50.236;22.452;2023-04-25T11:32:17;3.10;;;2.50;;
78430;SDS011;67727;50.236;22.452;2023-04-25T11:34:45;4.10;;;3.30;;
78430;SDS011;67727;50.236;22.452;2023-04-25T11:37:13;4.30;;;3.10;;
78430;SDS011;67727;50.236;22.452;2023-04-25T11:42:13;3.10;;;2.60;;
78430;SDS011;67727;50.236;22.452;2023-04-25T11:44:43;4.10;;;3.70;;
78430;SDS011;67727;50.236;22.452;2023-04-25T11:47:10;4.00;;;3.60;;
78430;SDS011;67727;50.236;22.452;2023-04-25T11:49:36;4.50;;;3.70;;
78430;SDS011;67727;50.236;22.452;2023-04-25T11:52:06;4.10;;;3.70;;
78430;SDS011;67727;50.236;22.452;2023-04-25T11:54:37;2.80;;;2.60;;
78430;SDS011;67727;50.236;22.452;2023-04-25T11:57:04;4.20;;;3.60;;
78430;SDS011;67727;50.236;22.452;2023-04-25T11:59:31;5.60;;;4.30;;
78430;SDS011;67727;50.236;22.452;2023-04-25T12:01:58;4.60;;;4.00;;
78430;SDS011;67727;50.236;22.452;2023-04-25T12:04:25;5.10;;;4.40;;
78430;SDS011;67727;50.236;22.452;2023-04-25T12:06:52;5.00;;;3.60;;
78430;SDS011;67727;50.236;22.452;2023-04-25T12:09:27;4.00;;;2.60;;
78430;SDS011;67727;50.236;22.452;2023-04-25T12:11:56;3.80;;;3.40;;
78430;SDS011;67727;50.236;22.452;2023-04-25T12:14:26;3.30;;;2.40;;
78430;SDS011;67727;50.236;22.452;2023-04-25T12:16:55;6.50;;;4.20;;
78430;SDS011;67727;50.236;22.452;2023-04-25T12:19:29;4.50;;;3.50;;
78430;SDS011;67727;50.236;22.452;2023-04-25T12:22:00;7.00;;;4.40;;
78430;SDS011;67727;50.236;22.452;2023-04-25T12:24:45;18.10;;;10.00;;
78430;SDS011;67727;50.236;22.452;2023-04-25T12:27:13;5.60;;;4.70;;
78430;SDS011;67727;50.236;22.452;2023-04-25T12:29:51;5.70;;;4.70;;
78430;SDS011;67727;50.236;22.452;2023-04-25T12:32:22;4.40;;;4.00;;
78430;SDS011;67727;50.236;22.452;2023-04-25T12:34:49;4.50;;;3.70;;
78430;SDS011;67727;50.236;22.452;2023-04-25T12:37:16;5.50;;;3.40;;
78430;SDS011;67727;50.236;22.452;2023-04-25T12:39:43;5.00;;;3.90;;
78430;SDS011;67727;50.236;22.452;2023-04-25T12:42:10;4.30;;;3.90;;
78430;SDS011;67727;50.236;22.452;2023-04-25T12:44:40;4.60;;;4.20;;
78430;SDS011;67727;50.236;22.452;2023-04-25T12:47:07;5.30;;;4.50;;
78430;SDS011;67727;50.236;22.452;2023-04-25T12:49:34;5.50;;;4.60;;
78430;SDS011;67727;50.236;22.452;2023-04-25T12:52:01;6.40;;;5.70;;
78430;SDS011;67727;50.236;22.452;2023-04-25T12:54:28;7.40;;;6.40;;
78430;SDS011;67727;50.236;22.452;2023-04-25T12:56:54;9.80;;;6.50;;
78430;SDS011;67727;50.236;22.452;2023-04-25T12:59:21;4.60;;;3.90;;
78430;SDS011;67727;50.236;22.452;2023-04-25T13:01:48;6.00;;;4.90;;
78430;SDS011;67727;50.236;22.452;2023-04-25T13:04:17;6.90;;;4.50;;
78430;SDS011;67727;50.236;22.452;2023-04-25T13:06:46;8.20;;;5.50;;
78430;SDS011;67727;50.236;22.452;2023-04-25T13:09:16;6.00;;;5.30;;
78430;SDS011;67727;50.236;22.452;2023-04-25T13:11:43;5.70;;;4.70;;
78430;SDS011;67727;50.236;22.452;2023-04-25T13:14:10;5.90;;;5.20;;
78430;SDS011;67727;50.236;22.452;2023-04-25T13:16:37;8.70;;;5.90;;
78430;SDS011;67727;50.236;22.452;2023-04-25T13:19:04;11.20;;;6.50;;
78430;SDS011;67727;50.236;22.452;2023-04-25T13:21:31;11.90;;;6.40;;
78430;SDS011;67727;50.236;22.452;2023-04-25T13:23:58;11.90;;;6.80;;
78430;SDS011;67727;50.236;22.452;2023-04-25T13:26:25;12.20;;;7.00;;
78430;SDS011;67727;50.236;22.452;2023-04-25T13:28:54;15.60;;;8.00;;
78430;SDS011;67727;50.236;22.452;2023-04-25T13:31:21;13.20;;;9.10;;
78430;SDS011;67727;50.236;22.452;2023-04-25T13:33:48;12.90;;;8.40;;
78430;SDS011;67727;50.236;22.452;2023-04-25T13:36:15;8.10;;;6.70;;
78430;SDS011;67727;50.236;22.452;2023-04-25T13:38:42;11.00;;;6.60;;
78430;SDS011;67727;50.236;22.452;2023-04-25T13:41:10;15.60;;;7.80;;
78430;SDS011;67727;50.236;22.452;2023-04-25T13:43:40;15.60;;;7.60;;
78430;SDS011;67727;50.236;22.452;2023-04-25T13:46:07;12.20;;;7.70;;
78430;SDS011;67727;50.236;22.452;2023-04-25T13:48:33;12.00;;;6.90;;
78430;SDS011;67727;50.236;22.452;2023-04-25T13:51:01;6.80;;;4.60;;
78430;SDS011;67727;50.236;22.452;2023-04-25T13:53:28;8.10;;;5.80;;
78430;SDS011;67727;50.236;22.452;2023-04-25T13:55:56;4.60;;;3.80;;
78430;SDS011;67727;50.236;22.452;2023-04-25T13:58:23;9.10;;;6.40;;
78430;SDS011;67727;50.236;22.452;2023-04-25T14:00:50;9.90;;;6.60;;
78430;SDS011;67727;50.236;22.452;2023-04-25T14:03:17;9.70;;;7.30;;
78430;SDS011;67727;50.236;22.452;2023-04-25T14:05:43;10.20;;;7.60;;
78430;SDS011;67727;50.236;22.452;2023-04-25T14:08:10;10.70;;;7.00;;
78430;SDS011;67727;50.236;22.452;2023-04-25T14:10:37;10.30;;;6.10;;
78430;SDS011;67727;50.236;22.452;2023-04-25T14:13:06;9.00;;;6.40;;
78430;SDS011;67727;50.236;22.452;2023-04-25T14:15:34;11.00;;;6.40;;
78430;SDS011;67727;50.236;22.452;2023-04-25T14:18:01;5.00;;;4.30;;
78430;SDS011;67727;50.236;22.452;2023-04-25T14:20:28;7.00;;;6.10;;
78430;SDS011;67727;50.236;22.452;2023-04-25T14:22:57;8.10;;;6.30;;
78430;SDS011;67727;50.236;22.452;2023-04-25T14:25:27;13.00;;;6.60;;
78430;SDS011;67727;50.236;22.452;2023-04-25T14:27:56;7.50;;;5.70;;
78430;SDS011;67727;50.236;22.452;2023-04-25T14:30:22;4.70;;;3.90;;
78430;SDS011;67727;50.236;22.452;2023-04-25T14:32:49;6.00;;;4.90;;
78430;SDS011;67727;50.236;22.452;2023-04-25T14:35:16;6.20;;;4.90;;
78430;SDS011;67727;50.236;22.452;2023-04-25T14:37:43;10.40;;;6.00;;
78430;SDS011;67727;50.236;22.452;2023-04-25T14:40:11;6.80;;;4.90;;
78430;SDS011;67727;50.236;22.452;2023-04-25T14:42:39;6.90;;;5.30;;
78430;SDS011;67727;50.236;22.452;2023-04-25T14:45:07;8.20;;;5.70;;
78430;SDS011;67727;50.236;22.452;2023-04-25T14:47:38;4.60;;;3.20;;
78430;SDS011;67727;50.236;22.452;2023-04-25T14:50:05;7.60;;;5.40;;
78430;SDS011;67727;50.236;22.452;2023-04-25T14:52:34;8.40;;;6.10;;